sensor_id;sensor_type;location;lat;lon;timestamp;P1;durP1;ratioP1;P2;durP2;ratioP2
51332;SDS011;37417;48.118;11.734;2023-07-22T00:01:00;2.08;;;1.50;;
51332;SDS011;37417;48.118;11.734;2023-07-22T00:03:45;2.50;;;1.95;;
51332;SDS011;37417;48.118;11.734;2023-07-22T00:06:31;2.35;;;1.73;;
51332;SDS011;37417;48.118;11.734;2023-07-22T00:09:17;2.55;;;1.60;;
51332;SDS011;37417;48.118;11.734;2023-07-22T00:12:03;3.05;;;1.50;;
51332;SDS011;37417;48.118;11.734;2023-07-22T00:14:48;2.13;;;1.58;;
51332;SDS011;37417;48.118;11.734;2023-07-22T00:17:34;3.92;;;2.15;;
51332;SDS011;37417;48.118;11.734;2023-07-22T00:20:20;4.22;;;2.38;;
51332;SDS011;37417;48.118;11.734;2023-07-22T00:23:05;2.65;;;2.00;;
51332;SDS011;37417;48.118;11.734;2023-07-22T00:25:51;3.45;;;1.90;;
51332;SDS011;37417;48.118;11.734;2023-07-22T00:28:37;5.20;;;1.90;;
51332;SDS011;37417;48.118;11.734;2023-07-22T00:31:22;1.67;;;1.38;;
51332;SDS011;37417;48.118;11.734;2023-07-22T00:34:08;3.58;;;1.75;;
51332;SDS011;37417;48.118;11.734;2023-07-22T00:36:54;3.97;;;1.85;;
51332;SDS011;37417;48.118;11.734;2023-07-22T00:39:40;2.85;;;1.67;;
51332;SDS011;37417;48.118;11.734;2023-07-22T00:42:25;2.80;;;2.08;;
51332;SDS011;37417;48.118;11.734;2023-07-22T00:45:11;1.77;;;1.60;;
51332;SDS011;37417;48.118;11.734;2023-07-22T00:47:57;4.57;;;1.67;;
51332;SDS011;37417;48.118;11.734;2023-07-22T00:50:43;4.82;;;1.77;;
51332;SDS011;37417;48.118;11.734;2023-07-22T00:53:29;2.85;;;2.15;;
51332;SDS011;37417;48.118;11.734;2023-07-22T00:56:14;2.38;;;2.08;;
51332;SDS011;37417;48.118;11.734;2023-07-22T00:59:00;3.22;;;1.98;;
51332;SDS011;37417;48.118;11.734;2023-07-22T01:01:46;4.70;;;1.77;;
51332;SDS011;37417;48.118;11.734;2023-07-22T01:04:32;2.40;;;1.83;;
51332;SDS011;37417;48.118;11.734;2023-07-22T01:07:19;1.75;;;1.65;;
51332;SDS011;37417;48.118;11.734;2023-07-22T01:10:05;2.92;;;2.10;;
51332;SDS011;37417;48.118;11.734;2023-07-22T01:12:51;3.20;;;1.98;;
51332;SDS011;37417;48.118;11.734;2023-07-22T01:15:37;2.80;;;2.05;;
51332;SDS011;37417;48.118;11.734;2023-07-22T01:18:23;5.97;;;2.42;;
51332;SDS011;37417;48.118;11.734;2023-07-22T01:21:09;3.28;;;2.55;;
51332;SDS011;37417;48.118;11.734;2023-07-22T01:23:55;2.42;;;2.22;;
51332;SDS011;37417;48.118;11.734;2023-07-22T01:26:42;3.78;;;2.38;;
51332;SDS011;37417;48.118;11.734;2023-07-22T01:29:28;4.78;;;2.53;;
51332;SDS011;37417;48.118;11.734;2023-07-22T01:32:14;4.82;;;2.78;;
51332;SDS011;37417;48.118;11.734;2023-07-22T01:34:59;4.45;;;2.55;;
51332;SDS011;37417;48.118;11.734;2023-07-22T01:37:45;3.47;;;2.15;;
51332;SDS011;37417;48.118;11.734;2023-07-22T01:40:31;5.05;;;2.28;;
51332;SDS011;37417;48.118;11.734;2023-07-22T01:43:16;2.55;;;2.15;;
51332;SDS011;37417;48.118;11.734;2023-07-22T01:46:02;3.20;;;1.98;;
51332;SDS011;37417;48.118;11.734;2023-07-22T01:48:48;4.85;;;2.40;;
51332;SDS011;37417;48.118;11.734;2023-07-22T01:51:34;7.72;;;2.38;;
51332;SDS011;37417;48.118;11.734;2023-07-22T01:54:19;4.25;;;2.53;;
51332;SDS011;37417;48.118;11.734;2023-07-22T01:57:05;4.28;;;2.25;;
51332;SDS011;37417;48.118;11.734;2023-07-22T01:59:51;5.82;;;1.98;;
51332;SDS011;37417;48.118;11.734;2023-07-22T02:02:37;3.85;;;2.47;;
51332;SDS011;37417;48.118;11.734;2023-07-22T02:05:22;2.63;;;1.98;;
51332;SDS011;37417;48.118;11.734;2023-07-22T02:08:08;2.70;;;2.28;;
51332;SDS011;37417;48.118;11.734;2023-07-22T02:10:54;2.70;;;2.20;;
51332;SDS011;37417;48.118;11.734;2023-07-22T02:13:39;2.65;;;2.22;;
51332;SDS011;37417;48.118;11.734;2023-07-22T02:16:25;4.60;;;1.73;;
51332;SDS011;37417;48.118;11.734;2023-07-22T02:19:11;3.50;;;2.35;;
51332;SDS011;37417;48.118;11.734;2023-07-22T02:21:56;3.25;;;2.13;;
51332;SDS011;37417;48.118;11.734;2023-07-22T02:24:42;3.53;;;2.63;;
51332;SDS011;37417;48.118;11.734;2023-07-22T02:27:28;4.57;;;2.28;;
51332;SDS011;37417;48.118;11.734;2023-07-22T02:30:13;7.97;;;2.13;;
51332;SDS011;37417;48.118;11.734;2023-07-22T02:32:59;5.38;;;2.10;;
51332;SDS011;37417;48.118;11.734;2023-07-22T02:35:45;2.90;;;2.00;;
51332;SDS011;37417;48.118;11.734;2023-07-22T02:38:32;4.72;;;2.35;;
51332;SDS011;37417;48.118;11.734;2023-07-22T02:41:17;2.85;;;2.13;;
51332;SDS011;37417;48.118;11.734;2023-07-22T02:44:03;2.78;;;2.40;;
51332;SDS011;37417;48.118;11.734;2023-07-22T02:46:49;3.28;;;1.88;;
51332;SDS011;37417;48.118;11.734;2023-07-22T02:49:34;2.47;;;2.28;;
51332;SDS011;37417;48.118;11.734;2023-07-22T02:52:20;3.10;;;2.15;;
51332;SDS011;37417;48.118;11.734;2023-07-22T02:57:56;3.47;;;1.95;;
51332;SDS011;37417;48.118;11.734;2023-07-22T03:00:42;2.65;;;1.90;;
51332;SDS011;37417;48.118;11.734;2023-07-22T03:03:28;4.78;;;2.17;;
51332;SDS011;37417;48.118;11.734;2023-07-22T03:06:14;2.97;;;1.95;;
51332;SDS011;37417;48.118;11.734;2023-07-22T03:08:59;3.80;;;1.83;;
51332;SDS011;37417;48.118;11.734;2023-07-22T03:11:45;2.97;;;2.00;;
51332;SDS011;37417;48.118;11.734;2023-07-22T03:14:31;5.85;;;2.78;;
51332;SDS011;37417;48.118;11.734;2023-07-22T03:17:21;3.20;;;2.03;;
51332;SDS011;37417;48.118;11.734;2023-07-22T03:20:07;3.25;;;2.10;;
51332;SDS011;37417;48.118;11.734;2023-07-22T03:22:59;1.63;;;1.40;;
51332;SDS011;37417;48.118;11.734;2023-07-22T03:25:45;3.13;;;1.75;;
51332;SDS011;37417;48.118;11.734;2023-07-22T03:28:31;3.88;;;2.20;;
51332;SDS011;37417;48.118;11.734;2023-07-22T03:31:16;2.65;;;2.13;;
51332;SDS011;37417;48.118;11.734;2023-07-22T03:34:03;3.00;;;2.08;;
51332;SDS011;37417;48.118;11.734;2023-07-22T03:36:48;3.95;;;2.92;;
51332;SDS011;37417;48.118;11.734;2023-07-22T03:39:34;2.38;;;2.13;;
51332;SDS011;37417;48.118;11.734;2023-07-22T03:42:20;3.00;;;2.20;;
51332;SDS011;37417;48.118;11.734;2023-07-22T03:45:06;2.58;;;1.70;;
51332;SDS011;37417;48.118;11.734;2023-07-22T03:47:57;2.22;;;1.92;;
51332;SDS011;37417;48.118;11.734;2023-07-22T03:50:44;5.60;;;2.08;;
51332;SDS011;37417;48.118;11.734;2023-07-22T03:53:30;2.55;;;2.35;;
51332;SDS011;37417;48.118;11.734;2023-07-22T03:56:15;2.58;;;2.25;;
51332;SDS011;37417;48.118;11.734;2023-07-22T03:59:01;3.42;;;2.42;;
51332;SDS011;37417;48.118;11.734;2023-07-22T04:01:46;3.33;;;2.10;;
51332;SDS011;37417;48.118;11.734;2023-07-22T04:04:33;7.72;;;2.85;;
51332;SDS011;37417;48.118;11.734;2023-07-22T04:07:18;9.27;;;2.80;;
51332;SDS011;37417;48.118;11.734;2023-07-22T04:10:04;3.00;;;2.22;;
51332;SDS011;37417;48.118;11.734;2023-07-22T04:12:51;4.15;;;2.22;;
51332;SDS011;37417;48.118;11.734;2023-07-22T04:15:36;5.10;;;2.22;;
51332;SDS011;37417;48.118;11.734;2023-07-22T04:18:22;3.42;;;2.90;;
51332;SDS011;37417;48.118;11.734;2023-07-22T04:21:08;3.72;;;2.40;;
51332;SDS011;37417;48.118;11.734;2023-07-22T04:23:54;5.32;;;2.40;;
51332;SDS011;37417;48.118;11.734;2023-07-22T04:26:41;4.10;;;2.33;;
51332;SDS011;37417;48.118;11.734;2023-07-22T04:29:28;3.22;;;2.85;;
51332;SDS011;37417;48.118;11.734;2023-07-22T04:32:13;6.07;;;2.70;;
51332;SDS011;37417;48.118;11.734;2023-07-22T04:34:59;4.57;;;2.70;;
51332;SDS011;37417;48.118;11.734;2023-07-22T04:37:45;3.35;;;2.58;;
51332;SDS011;37417;48.118;11.734;2023-07-22T04:40:30;3.03;;;2.75;;
51332;SDS011;37417;48.118;11.734;2023-07-22T04:43:16;6.15;;;2.33;;
51332;SDS011;37417;48.118;11.734;2023-07-22T04:46:02;3.83;;;2.35;;
51332;SDS011;37417;48.118;11.734;2023-07-22T04:48:48;2.72;;;2.03;;
51332;SDS011;37417;48.118;11.734;2023-07-22T04:51:33;2.92;;;2.10;;
51332;SDS011;37417;48.118;11.734;2023-07-22T04:54:19;3.22;;;2.42;;
51332;SDS011;37417;48.118;11.734;2023-07-22T04:57:05;7.90;;;2.30;;
51332;SDS011;37417;48.118;11.734;2023-07-22T04:59:51;6.43;;;2.50;;
51332;SDS011;37417;48.118;11.734;2023-07-22T05:02:36;1.80;;;1.60;;
51332;SDS011;37417;48.118;11.734;2023-07-22T05:05:22;5.60;;;1.70;;
51332;SDS011;37417;48.118;11.734;2023-07-22T05:08:08;6.47;;;1.90;;
51332;SDS011;37417;48.118;11.734;2023-07-22T05:10:53;3.40;;;2.30;;
51332;SDS011;37417;48.118;11.734;2023-07-22T05:13:39;4.32;;;2.30;;
51332;SDS011;37417;48.118;11.734;2023-07-22T05:16:25;2.67;;;1.80;;
51332;SDS011;37417;48.118;11.734;2023-07-22T05:19:10;4.18;;;2.35;;
51332;SDS011;37417;48.118;11.734;2023-07-22T05:21:56;3.75;;;1.50;;
51332;SDS011;37417;48.118;11.734;2023-07-22T05:24:42;6.10;;;1.92;;
51332;SDS011;37417;48.118;11.734;2023-07-22T05:27:28;2.90;;;1.73;;
51332;SDS011;37417;48.118;11.734;2023-07-22T05:30:14;2.53;;;2.00;;
51332;SDS011;37417;48.118;11.734;2023-07-22T05:33:00;4.10;;;2.15;;
51332;SDS011;37417;48.118;11.734;2023-07-22T05:35:45;2.40;;;1.90;;
51332;SDS011;37417;48.118;11.734;2023-07-22T05:38:31;2.45;;;1.73;;
51332;SDS011;37417;48.118;11.734;2023-07-22T05:41:17;2.05;;;1.45;;
51332;SDS011;37417;48.118;11.734;2023-07-22T05:44:02;3.72;;;2.35;;
51332;SDS011;37417;48.118;11.734;2023-07-22T05:46:48;1.98;;;1.73;;
51332;SDS011;37417;48.118;11.734;2023-07-22T05:49:34;3.97;;;1.80;;
51332;SDS011;37417;48.118;11.734;2023-07-22T05:52:19;3.05;;;2.28;;
51332;SDS011;37417;48.118;11.734;2023-07-22T05:55:05;1.98;;;1.38;;
51332;SDS011;37417;48.118;11.734;2023-07-22T05:57:51;3.33;;;2.00;;
51332;SDS011;37417;48.118;11.734;2023-07-22T06:00:36;4.15;;;2.00;;
51332;SDS011;37417;48.118;11.734;2023-07-22T06:03:23;4.65;;;1.75;;
51332;SDS011;37417;48.118;11.734;2023-07-22T06:06:08;4.45;;;2.22;;
51332;SDS011;37417;48.118;11.734;2023-07-22T06:08:55;2.08;;;1.60;;
51332;SDS011;37417;48.118;11.734;2023-07-22T06:11:40;2.10;;;1.35;;
51332;SDS011;37417;48.118;11.734;2023-07-22T06:14:26;2.97;;;1.80;;
51332;SDS011;37417;48.118;11.734;2023-07-22T06:17:12;3.78;;;2.05;;
51332;SDS011;37417;48.118;11.734;2023-07-22T06:19:58;3.17;;;1.63;;
51332;SDS011;37417;48.118;11.734;2023-07-22T06:22:43;3.15;;;1.55;;
51332;SDS011;37417;48.118;11.734;2023-07-22T06:25:29;2.15;;;1.80;;
51332;SDS011;37417;48.118;11.734;2023-07-22T06:28:15;2.75;;;1.50;;
51332;SDS011;37417;48.118;11.734;2023-07-22T06:31:00;3.20;;;1.77;;
51332;SDS011;37417;48.118;11.734;2023-07-22T06:33:46;2.40;;;1.40;;
51332;SDS011;37417;48.118;11.734;2023-07-22T06:36:32;1.88;;;1.58;;
51332;SDS011;37417;48.118;11.734;2023-07-22T06:39:17;2.63;;;1.42;;
51332;SDS011;37417;48.118;11.734;2023-07-22T06:42:03;3.80;;;1.63;;
51332;SDS011;37417;48.118;11.734;2023-07-22T06:44:50;2.22;;;1.25;;
51332;SDS011;37417;48.118;11.734;2023-07-22T06:47:35;4.28;;;1.63;;
51332;SDS011;37417;48.118;11.734;2023-07-22T06:50:21;3.15;;;1.58;;
51332;SDS011;37417;48.118;11.734;2023-07-22T06:53:07;3.80;;;1.38;;
51332;SDS011;37417;48.118;11.734;2023-07-22T06:55:53;2.45;;;1.30;;
51332;SDS011;37417;48.118;11.734;2023-07-22T06:58:39;5.07;;;1.52;;
51332;SDS011;37417;48.118;11.734;2023-07-22T07:01:24;1.63;;;1.15;;
51332;SDS011;37417;48.118;11.734;2023-07-22T07:04:10;1.92;;;1.20;;
51332;SDS011;37417;48.118;11.734;2023-07-22T07:06:56;1.17;;;1.02;;
51332;SDS011;37417;48.118;11.734;2023-07-22T07:09:42;1.77;;;1.17;;
51332;SDS011;37417;48.118;11.734;2023-07-22T07:12:27;7.18;;;1.35;;
51332;SDS011;37417;48.118;11.734;2023-07-22T07:15:13;1.55;;;1.10;;
51332;SDS011;37417;48.118;11.734;2023-07-22T07:17:59;3.88;;;1.40;;
51332;SDS011;37417;48.118;11.734;2023-07-22T07:20:44;1.80;;;1.00;;
51332;SDS011;37417;48.118;11.734;2023-07-22T07:23:30;1.90;;;1.15;;
51332;SDS011;37417;48.118;11.734;2023-07-22T07:26:16;2.47;;;1.50;;
51332;SDS011;37417;48.118;11.734;2023-07-22T07:29:02;1.42;;;1.10;;
51332;SDS011;37417;48.118;11.734;2023-07-22T07:31:47;3.25;;;1.38;;
51332;SDS011;37417;48.118;11.734;2023-07-22T07:34:33;2.72;;;1.00;;
51332;SDS011;37417;48.118;11.734;2023-07-22T07:37:19;2.22;;;1.27;;
51332;SDS011;37417;48.118;11.734;2023-07-22T07:40:04;3.70;;;1.30;;
51332;SDS011;37417;48.118;11.734;2023-07-22T07:42:51;2.22;;;1.38;;
51332;SDS011;37417;48.118;11.734;2023-07-22T07:45:38;1.20;;;1.02;;
51332;SDS011;37417;48.118;11.734;2023-07-22T07:48:24;1.95;;;1.02;;
51332;SDS011;37417;48.118;11.734;2023-07-22T07:51:11;2.38;;;1.13;;
51332;SDS011;37417;48.118;11.734;2023-07-22T07:53:58;2.10;;;1.00;;
51332;SDS011;37417;48.118;11.734;2023-07-22T07:56:44;2.05;;;1.33;;
51332;SDS011;37417;48.118;11.734;2023-07-22T07:59:30;2.97;;;1.05;;
51332;SDS011;37417;48.118;11.734;2023-07-22T08:02:16;2.88;;;0.98;;
51332;SDS011;37417;48.118;11.734;2023-07-22T08:05:02;1.02;;;0.93;;
51332;SDS011;37417;48.118;11.734;2023-07-22T08:07:48;1.65;;;0.98;;
51332;SDS011;37417;48.118;11.734;2023-07-22T08:10:37;1.20;;;0.90;;
51332;SDS011;37417;48.118;11.734;2023-07-22T08:13:24;1.42;;;0.70;;
51332;SDS011;37417;48.118;11.734;2023-07-22T08:16:10;1.25;;;0.95;;
51332;SDS011;37417;48.118;11.734;2023-07-22T08:18:57;2.05;;;1.00;;
51332;SDS011;37417;48.118;11.734;2023-07-22T08:21:43;2.78;;;1.02;;
51332;SDS011;37417;48.118;11.734;2023-07-22T08:24:29;0.85;;;0.65;;
51332;SDS011;37417;48.118;11.734;2023-07-22T08:27:15;1.08;;;0.63;;
51332;SDS011;37417;48.118;11.734;2023-07-22T08:30:00;0.85;;;0.70;;
51332;SDS011;37417;48.118;11.734;2023-07-22T08:32:46;2.15;;;0.85;;
51332;SDS011;37417;48.118;11.734;2023-07-22T08:35:32;1.05;;;0.57;;
51332;SDS011;37417;48.118;11.734;2023-07-22T08:38:19;1.05;;;0.88;;
51332;SDS011;37417;48.118;11.734;2023-07-22T08:41:05;1.20;;;0.82;;
51332;SDS011;37417;48.118;11.734;2023-07-22T08:43:51;1.33;;;0.63;;
51332;SDS011;37417;48.118;11.734;2023-07-22T08:46:39;1.33;;;0.88;;
51332;SDS011;37417;48.118;11.734;2023-07-22T08:49:27;1.23;;;0.90;;
51332;SDS011;37417;48.118;11.734;2023-07-22T08:52:14;1.17;;;0.80;;
51332;SDS011;37417;48.118;11.734;2023-07-22T08:55:01;0.90;;;0.70;;
51332;SDS011;37417;48.118;11.734;2023-07-22T08:57:47;1.60;;;0.95;;
51332;SDS011;37417;48.118;11.734;2023-07-22T09:00:34;0.90;;;0.70;;
51332;SDS011;37417;48.118;11.734;2023-07-22T09:03:20;1.27;;;0.85;;
51332;SDS011;37417;48.118;11.734;2023-07-22T09:06:06;1.17;;;0.93;;
51332;SDS011;37417;48.118;11.734;2023-07-22T09:08:52;1.80;;;0.85;;
51332;SDS011;37417;48.118;11.734;2023-07-22T09:11:38;1.10;;;0.63;;
51332;SDS011;37417;48.118;11.734;2023-07-22T09:14:24;0.90;;;0.80;;
51332;SDS011;37417;48.118;11.734;2023-07-22T09:17:11;1.98;;;1.08;;
51332;SDS011;37417;48.118;11.734;2023-07-22T09:19:56;1.33;;;0.80;;
51332;SDS011;37417;48.118;11.734;2023-07-22T09:22:45;1.33;;;0.80;;
51332;SDS011;37417;48.118;11.734;2023-07-22T09:25:36;1.33;;;0.80;;
51332;SDS011;37417;48.118;11.734;2023-07-22T09:28:22;1.25;;;0.73;;
51332;SDS011;37417;48.118;11.734;2023-07-22T09:31:07;1.80;;;0.60;;
51332;SDS011;37417;48.118;11.734;2023-07-22T09:33:53;3.45;;;0.82;;
51332;SDS011;37417;48.118;11.734;2023-07-22T09:36:52;4.32;;;0.95;;
51332;SDS011;37417;48.118;11.734;2023-07-22T09:39:45;0.52;;;0.45;;
51332;SDS011;37417;48.118;11.734;2023-07-22T09:42:32;2.28;;;0.93;;
51332;SDS011;37417;48.118;11.734;2023-07-22T09:45:18;1.10;;;0.68;;
51332;SDS011;37417;48.118;11.734;2023-07-22T09:48:06;0.73;;;0.60;;
51332;SDS011;37417;48.118;11.734;2023-07-22T09:50:58;1.00;;;0.90;;
51332;SDS011;37417;48.118;11.734;2023-07-22T09:53:44;0.80;;;0.55;;
51332;SDS011;37417;48.118;11.734;2023-07-22T09:56:31;0.90;;;0.60;;
51332;SDS011;37417;48.118;11.734;2023-07-22T09:59:18;1.95;;;0.85;;
51332;SDS011;37417;48.118;11.734;2023-07-22T10:02:05;3.70;;;0.70;;
51332;SDS011;37417;48.118;11.734;2023-07-22T10:04:52;1.27;;;0.55;;
51332;SDS011;37417;48.118;11.734;2023-07-22T10:07:47;0.98;;;0.77;;
51332;SDS011;37417;48.118;11.734;2023-07-22T10:10:38;0.70;;;0.70;;
51332;SDS011;37417;48.118;11.734;2023-07-22T10:13:24;2.47;;;1.00;;
51332;SDS011;37417;48.118;11.734;2023-07-22T10:16:10;1.85;;;0.80;;
51332;SDS011;37417;48.118;11.734;2023-07-22T10:18:58;1.83;;;0.80;;
51332;SDS011;37417;48.118;11.734;2023-07-22T10:21:44;1.42;;;0.73;;
51332;SDS011;37417;48.118;11.734;2023-07-22T10:24:30;1.45;;;0.80;;
51332;SDS011;37417;48.118;11.734;2023-07-22T10:27:17;2.78;;;0.90;;
51332;SDS011;37417;48.118;11.734;2023-07-22T10:30:03;1.10;;;0.77;;
51332;SDS011;37417;48.118;11.734;2023-07-22T10:32:50;1.65;;;0.82;;
51332;SDS011;37417;48.118;11.734;2023-07-22T10:35:41;0.82;;;0.63;;
51332;SDS011;37417;48.118;11.734;2023-07-22T10:38:29;0.80;;;0.55;;
51332;SDS011;37417;48.118;11.734;2023-07-22T10:41:16;2.72;;;0.73;;
51332;SDS011;37417;48.118;11.734;2023-07-22T10:44:02;0.82;;;0.70;;
51332;SDS011;37417;48.118;11.734;2023-07-22T10:46:54;1.40;;;0.82;;
51332;SDS011;37417;48.118;11.734;2023-07-22T10:49:45;4.13;;;0.70;;
51332;SDS011;37417;48.118;11.734;2023-07-22T10:52:43;0.85;;;0.57;;
51332;SDS011;37417;48.118;11.734;2023-07-22T10:55:29;2.20;;;0.90;;
51332;SDS011;37417;48.118;11.734;2023-07-22T10:58:15;1.95;;;0.90;;
51332;SDS011;37417;48.118;11.734;2023-07-22T11:07:03;4.28;;;1.00;;
51332;SDS011;37417;48.118;11.734;2023-07-22T11:09:50;0.82;;;0.57;;
51332;SDS011;37417;48.118;11.734;2023-07-22T11:12:36;0.77;;;0.60;;
51332;SDS011;37417;48.118;11.734;2023-07-22T11:15:27;1.58;;;0.80;;
51332;SDS011;37417;48.118;11.734;2023-07-22T11:18:14;2.20;;;0.90;;
51332;SDS011;37417;48.118;11.734;2023-07-22T11:21:00;0.93;;;0.68;;
51332;SDS011;37417;48.118;11.734;2023-07-22T11:23:45;1.10;;;0.60;;
51332;SDS011;37417;48.118;11.734;2023-07-22T11:26:31;1.05;;;0.80;;
51332;SDS011;37417;48.118;11.734;2023-07-22T11:29:17;0.90;;;0.60;;
51332;SDS011;37417;48.118;11.734;2023-07-22T11:32:03;1.70;;;0.90;;
51332;SDS011;37417;48.118;11.734;2023-07-22T11:34:52;1.10;;;0.80;;
51332;SDS011;37417;48.118;11.734;2023-07-22T11:37:38;1.05;;;0.75;;
51332;SDS011;37417;48.118;11.734;2023-07-22T11:40:32;1.27;;;0.95;;
51332;SDS011;37417;48.118;11.734;2023-07-22T11:43:18;0.82;;;0.50;;
51332;SDS011;37417;48.118;11.734;2023-07-22T11:46:06;0.88;;;0.60;;
51332;SDS011;37417;48.118;11.734;2023-07-22T11:48:52;1.45;;;0.98;;
51332;SDS011;37417;48.118;11.734;2023-07-22T11:51:41;1.98;;;0.52;;
51332;SDS011;37417;48.118;11.734;2023-07-22T11:54:28;1.88;;;0.70;;
51332;SDS011;37417;48.118;11.734;2023-07-22T11:57:18;3.42;;;1.25;;
51332;SDS011;37417;48.118;11.734;2023-07-22T12:00:07;4.65;;;0.60;;
51332;SDS011;37417;48.118;11.734;2023-07-22T12:02:54;1.55;;;0.70;;
51332;SDS011;37417;48.118;11.734;2023-07-22T12:05:42;0.70;;;0.68;;
51332;SDS011;37417;48.118;11.734;2023-07-22T12:08:28;1.85;;;0.80;;
51332;SDS011;37417;48.118;11.734;2023-07-22T12:11:20;1.40;;;0.80;;
51332;SDS011;37417;48.118;11.734;2023-07-22T12:14:08;1.17;;;0.73;;
51332;SDS011;37417;48.118;11.734;2023-07-22T12:16:55;1.42;;;0.68;;
51332;SDS011;37417;48.118;11.734;2023-07-22T12:19:50;1.80;;;1.08;;
51332;SDS011;37417;48.118;11.734;2023-07-22T12:22:37;3.67;;;1.38;;
51332;SDS011;37417;48.118;11.734;2023-07-22T12:25:23;1.75;;;1.00;;
51332;SDS011;37417;48.118;11.734;2023-07-22T12:28:09;2.42;;;1.50;;
51332;SDS011;37417;48.118;11.734;2023-07-22T12:30:56;3.10;;;2.08;;
51332;SDS011;37417;48.118;11.734;2023-07-22T12:33:44;1.13;;;0.80;;
51332;SDS011;37417;48.118;11.734;2023-07-22T12:36:30;1.13;;;0.98;;
51332;SDS011;37417;48.118;11.734;2023-07-22T12:39:16;2.03;;;1.63;;
51332;SDS011;37417;48.118;11.734;2023-07-22T12:42:02;2.60;;;1.67;;
51332;SDS011;37417;48.118;11.734;2023-07-22T12:44:48;2.35;;;1.55;;
51332;SDS011;37417;48.118;11.734;2023-07-22T12:47:34;2.42;;;1.65;;
51332;SDS011;37417;48.118;11.734;2023-07-22T12:50:19;1.75;;;0.90;;
51332;SDS011;37417;48.118;11.734;2023-07-22T12:53:05;2.58;;;0.90;;
51332;SDS011;37417;48.118;11.734;2023-07-22T12:55:51;2.00;;;0.98;;
51332;SDS011;37417;48.118;11.734;2023-07-22T12:58:36;2.78;;;1.20;;
51332;SDS011;37417;48.118;11.734;2023-07-22T13:01:22;2.00;;;1.23;;
51332;SDS011;37417;48.118;11.734;2023-07-22T13:04:08;4.57;;;2.08;;
51332;SDS011;37417;48.118;11.734;2023-07-22T13:06:53;1.77;;;1.27;;
51332;SDS011;37417;48.118;11.734;2023-07-22T13:09:39;3.95;;;2.70;;
51332;SDS011;37417;48.118;11.734;2023-07-22T13:12:26;3.33;;;1.75;;
51332;SDS011;37417;48.118;11.734;2023-07-22T13:15:12;10.23;;;5.53;;
51332;SDS011;37417;48.118;11.734;2023-07-22T13:17:57;1.60;;;1.25;;
51332;SDS011;37417;48.118;11.734;2023-07-22T13:20:43;1.60;;;1.25;;
51332;SDS011;37417;48.118;11.734;2023-07-22T13:23:29;1.55;;;0.93;;
51332;SDS011;37417;48.118;11.734;2023-07-22T13:26:14;2.80;;;0.98;;
51332;SDS011;37417;48.118;11.734;2023-07-22T13:29:00;3.17;;;0.80;;
51332;SDS011;37417;48.118;11.734;2023-07-22T13:31:45;2.45;;;1.17;;
51332;SDS011;37417;48.118;11.734;2023-07-22T13:34:31;2.58;;;0.70;;
51332;SDS011;37417;48.118;11.734;2023-07-22T13:37:17;1.00;;;0.93;;
51332;SDS011;37417;48.118;11.734;2023-07-22T13:40:03;1.52;;;1.25;;
51332;SDS011;37417;48.118;11.734;2023-07-22T13:42:55;1.48;;;0.68;;
51332;SDS011;37417;48.118;11.734;2023-07-22T13:45:40;0.70;;;0.60;;
51332;SDS011;37417;48.118;11.734;2023-07-22T13:48:26;1.17;;;0.70;;
51332;SDS011;37417;48.118;11.734;2023-07-22T13:51:13;1.10;;;0.73;;
51332;SDS011;37417;48.118;11.734;2023-07-22T13:53:58;0.93;;;0.73;;
51332;SDS011;37417;48.118;11.734;2023-07-22T13:56:44;0.60;;;0.57;;
51332;SDS011;37417;48.118;11.734;2023-07-22T13:59:32;1.38;;;0.93;;
51332;SDS011;37417;48.118;11.734;2023-07-22T14:02:17;1.17;;;1.00;;
51332;SDS011;37417;48.118;11.734;2023-07-22T14:05:04;2.55;;;1.00;;
51332;SDS011;37417;48.118;11.734;2023-07-22T14:07:50;1.67;;;0.82;;
51332;SDS011;37417;48.118;11.734;2023-07-22T14:10:36;1.08;;;0.70;;
51332;SDS011;37417;48.118;11.734;2023-07-22T14:13:21;0.98;;;0.90;;
51332;SDS011;37417;48.118;11.734;2023-07-22T14:16:07;1.58;;;1.00;;
51332;SDS011;37417;48.118;11.734;2023-07-22T14:18:53;1.10;;;0.77;;
51332;SDS011;37417;48.118;11.734;2023-07-22T14:21:40;1.35;;;0.73;;
51332;SDS011;37417;48.118;11.734;2023-07-22T14:24:26;1.50;;;0.80;;
51332;SDS011;37417;48.118;11.734;2023-07-22T14:27:11;1.15;;;0.70;;
51332;SDS011;37417;48.118;11.734;2023-07-22T14:29:57;2.17;;;0.80;;
51332;SDS011;37417;48.118;11.734;2023-07-22T14:32:43;1.52;;;0.82;;
51332;SDS011;37417;48.118;11.734;2023-07-22T14:35:28;1.60;;;1.38;;
51332;SDS011;37417;48.118;11.734;2023-07-22T14:38:14;1.33;;;0.90;;
51332;SDS011;37417;48.118;11.734;2023-07-22T14:41:00;0.52;;;0.50;;
51332;SDS011;37417;48.118;11.734;2023-07-22T14:43:46;1.25;;;1.00;;
51332;SDS011;37417;48.118;11.734;2023-07-22T14:46:31;1.75;;;0.75;;
51332;SDS011;37417;48.118;11.734;2023-07-22T14:49:17;2.17;;;0.93;;
51332;SDS011;37417;48.118;11.734;2023-07-22T14:52:03;2.00;;;0.98;;
51332;SDS011;37417;48.118;11.734;2023-07-22T14:54:49;2.72;;;1.10;;
51332;SDS011;37417;48.118;11.734;2023-07-22T14:57:35;1.63;;;0.90;;
51332;SDS011;37417;48.118;11.734;2023-07-22T15:00:20;2.35;;;1.85;;
51332;SDS011;37417;48.118;11.734;2023-07-22T15:03:06;1.50;;;1.05;;
51332;SDS011;37417;48.118;11.734;2023-07-22T15:05:52;6.00;;;1.25;;
51332;SDS011;37417;48.118;11.734;2023-07-22T15:08:38;1.63;;;1.02;;
51332;SDS011;37417;48.118;11.734;2023-07-22T15:11:24;1.83;;;0.95;;
51332;SDS011;37417;48.118;11.734;2023-07-22T15:14:10;1.00;;;0.90;;
51332;SDS011;37417;48.118;11.734;2023-07-22T15:16:56;2.13;;;1.10;;
51332;SDS011;37417;48.118;11.734;2023-07-22T15:19:41;1.35;;;0.82;;
51332;SDS011;37417;48.118;11.734;2023-07-22T15:22:27;2.15;;;1.52;;
51332;SDS011;37417;48.118;11.734;2023-07-22T15:25:13;1.63;;;1.20;;
51332;SDS011;37417;48.118;11.734;2023-07-22T15:27:58;1.95;;;1.30;;
51332;SDS011;37417;48.118;11.734;2023-07-22T15:30:44;1.05;;;0.90;;
51332;SDS011;37417;48.118;11.734;2023-07-22T15:33:30;1.13;;;1.00;;
51332;SDS011;37417;48.118;11.734;2023-07-22T15:36:15;1.42;;;0.95;;
51332;SDS011;37417;48.118;11.734;2023-07-22T15:39:01;1.73;;;1.00;;
51332;SDS011;37417;48.118;11.734;2023-07-22T15:41:48;1.35;;;1.00;;
51332;SDS011;37417;48.118;11.734;2023-07-22T15:44:34;1.45;;;1.00;;
51332;SDS011;37417;48.118;11.734;2023-07-22T15:47:19;5.78;;;1.30;;
51332;SDS011;37417;48.118;11.734;2023-07-22T15:50:06;1.95;;;1.33;;
51332;SDS011;37417;48.118;11.734;2023-07-22T15:52:53;1.45;;;1.20;;
51332;SDS011;37417;48.118;11.734;2023-07-22T15:55:38;1.52;;;1.23;;
51332;SDS011;37417;48.118;11.734;2023-07-22T15:58:24;1.27;;;0.90;;
51332;SDS011;37417;48.118;11.734;2023-07-22T16:01:10;2.03;;;1.50;;
51332;SDS011;37417;48.118;11.734;2023-07-22T16:03:56;2.60;;;1.08;;
51332;SDS011;37417;48.118;11.734;2023-07-22T16:06:41;5.18;;;1.40;;
51332;SDS011;37417;48.118;11.734;2023-07-22T16:09:27;2.90;;;1.20;;
51332;SDS011;37417;48.118;11.734;2023-07-22T16:12:13;3.13;;;1.27;;
51332;SDS011;37417;48.118;11.734;2023-07-22T16:14:58;1.08;;;0.95;;
51332;SDS011;37417;48.118;11.734;2023-07-22T16:17:44;2.38;;;1.23;;
51332;SDS011;37417;48.118;11.734;2023-07-22T16:20:30;2.47;;;1.60;;
51332;SDS011;37417;48.118;11.734;2023-07-22T16:23:16;1.73;;;1.27;;
51332;SDS011;37417;48.118;11.734;2023-07-22T16:26:02;3.33;;;1.52;;
51332;SDS011;37417;48.118;11.734;2023-07-22T16:28:47;3.33;;;1.75;;
51332;SDS011;37417;48.118;11.734;2023-07-22T16:31:33;1.88;;;1.23;;
51332;SDS011;37417;48.118;11.734;2023-07-22T16:34:19;2.15;;;1.40;;